Time;durP1;ratioP1;P1;durP2;ratioP2;P2;SDS_P1;SDS_P2;PMS_P1;PMS_P2;Temp;Humidity;BMP_temperature;BMP_pressure;BME280_temperature;BME280_humidity;BME280_pressure;Samples;Min_cycle;Max_cycle;Signal;HPM_P1;HPM_P2
2022/08/04 00:01:30;;;;;;;6.63;2.10;;;21.90;99.90;;;;;;4843013;29;37254;-80
2022/08/04 00:04:12;;;;;;;5.70;2.20;;;21.90;99.90;;;;;;4843509;29;38035;-81
2022/08/04 00:07:01;;;;;;;5.67;2.47;;;21.90;99.90;;;;;;4864633;29;48379;-81
2022/08/04 00:09:50;;;;;;;3.65;2.00;;;21.90;99.90;;;;;;4866044;29;47883;-80
2022/08/04 00:12:16;;;;;;;4.93;2.30;;;21.80;99.90;;;;;;4859581;29;39486;-81
2022/08/04 00:14:49;;;;;;;3.95;2.03;;;21.80;99.90;;;;;;4841103;29;38076;-80
2022/08/04 00:17:20;;;;;;;7.10;2.40;;;21.80;99.90;;;;;;4849712;29;37580;-80
2022/08/04 00:19:54;;;;;;;6.70;3.40;;;21.80;99.90;;;;;;4851675;29;36116;-81
2022/08/04 00:22:26;;;;;;;7.15;2.30;;;21.80;99.90;;;;;;4876340;29;38618;-80
2022/08/04 00:24:54;;;;;;;4.43;2.30;;;21.70;99.90;;;;;;4872057;29;38272;-81
2022/08/04 00:27:20;;;;;;;5.50;2.53;;;21.70;99.90;;;;;;4845557;29;37674;-82
2022/08/04 00:29:47;;;;;;;2.90;2.17;;;21.70;99.90;;;;;;4864762;29;37035;-81
2022/08/04 00:32:15;;;;;;;6.05;2.60;;;21.60;99.90;;;;;;4864968;29;38969;-82
2022/08/04 00:34:42;;;;;;;3.47;2.42;;;21.60;99.90;;;;;;4834740;29;39330;-82
2022/08/04 00:37:09;;;;;;;3.65;2.30;;;21.60;99.90;;;;;;4861954;29;37865;-82
2022/08/04 00:39:35;;;;;;;4.22;2.10;;;21.60;99.90;;;;;;4843731;29;36287;-81
2022/08/04 00:42:31;;;;;;;2.60;1.75;;;21.60;99.90;;;;;;4847733;29;41537;-81
2022/08/04 00:45:06;;;;;;;5.38;2.17;;;21.50;99.90;;;;;;4839543;29;39391;-81
2022/08/04 00:48:06;;;;;;;6.97;2.33;;;21.50;99.90;;;;;;4859519;29;48516;-81
2022/08/04 00:50:35;;;;;;;4.22;2.67;;;21.40;99.90;;;;;;4860024;29;50179;-81
2022/08/04 00:53:13;;;;;;;4.45;2.47;;;21.40;99.90;;;;;;4845508;29;38761;-81
2022/08/04 00:55:51;;;;;;;6.43;2.30;;;21.50;99.90;;;;;;4849695;29;46510;-81
2022/08/04 00:58:28;;;;;;;2.80;2.20;;;21.40;99.90;;;;;;4843594;29;37588;-81
2022/08/04 01:00:57;;;;;;;4.90;2.58;;;21.40;99.90;;;;;;4840326;29;36428;-81
2022/08/04 01:03:55;;;;;;;3.25;2.17;;;21.30;99.90;;;;;;4860466;29;39815;-81
2022/08/04 01:06:51;;;;;;;7.95;2.30;;;21.20;99.90;;;;;;4864423;29;38652;-81
2022/08/04 01:09:40;;;;;;;4.68;2.72;;;21.20;99.90;;;;;;4855662;29;37403;-81
2022/08/04 01:12:24;;;;;;;4.03;2.50;;;21.20;99.90;;;;;;4859321;29;37615;-81
2022/08/04 01:15:05;;;;;;;3.97;2.47;;;21.30;99.90;;;;;;4841615;29;37674;-82
2022/08/04 01:17:37;;;;;;;3.60;2.28;;;21.30;99.90;;;;;;4866489;29;48266;-80
2022/08/04 01:20:08;;;;;;;4.97;2.20;;;21.30;99.90;;;;;;4839746;29;38691;-81
2022/08/04 01:23:17;;;;;;;3.03;1.80;;;21.30;99.90;;;;;;4843635;29;45895;-80
2022/08/04 01:25:49;;;;;;;5.30;2.45;;;21.40;99.90;;;;;;4827490;29;47185;-81
2022/08/04 01:28:40;;;;;;;3.80;1.98;;;21.40;99.90;;;;;;4865201;29;38763;-82
2022/08/04 01:31:20;;;;;;;3.72;2.40;;;21.30;99.90;;;;;;4850906;29;38856;-80
2022/08/04 01:33:48;;;;;;;6.22;2.20;;;21.30;99.90;;;;;;4845649;29;36197;-81
2022/08/04 01:36:15;;;;;;;2.25;1.90;;;21.20;99.90;;;;;;4862692;29;38450;-81
2022/08/04 01:38:42;;;;;;;3.90;2.22;;;21.20;99.90;;;;;;4864492;29;39077;-81
2022/08/04 01:41:17;;;;;;;6.88;2.30;;;21.20;99.90;;;;;;4849649;29;38196;-81
2022/08/04 01:43:45;;;;;;;3.83;2.45;;;21.20;99.90;;;;;;4850526;29;37320;-81
2022/08/04 01:46:13;;;;;;;4.63;2.05;;;21.20;99.90;;;;;;4863441;29;39354;-81
2022/08/04 01:48:43;;;;;;;6.60;2.58;;;21.20;99.90;;;;;;4847780;29;37841;-82
2022/08/04 01:51:10;;;;;;;3.63;2.20;;;21.20;99.90;;;;;;4869129;29;39181;-82
2022/08/04 01:53:38;;;;;;;5.55;2.50;;;21.20;99.90;;;;;;4850062;29;36309;-81
2022/08/04 01:56:07;;;;;;;3.42;2.33;;;21.20;99.90;;;;;;4864040;29;38832;-81
2022/08/04 01:58:35;;;;;;;3.60;2.40;;;21.30;99.90;;;;;;4845038;29;39206;-82
2022/08/04 02:01:07;;;;;;;4.90;2.53;;;21.30;99.90;;;;;;4845992;29;37310;-81
2022/08/04 02:03:36;;;;;;;2.78;2.33;;;21.30;99.90;;;;;;4845547;29;35891;-81
2022/08/04 02:06:23;;;;;;;5.47;2.15;;;21.30;99.90;;;;;;4853201;29;39768;-81
2022/08/04 02:09:01;;;;;;;5.85;2.55;;;21.30;99.90;;;;;;4871533;29;37668;-81
2022/08/04 02:11:28;;;;;;;4.95;2.30;;;21.30;99.90;;;;;;4845794;29;47002;-81
2022/08/04 02:14:42;;;;;;;4.70;2.47;;;21.30;99.90;;;;;;4864556;29;37567;-81
2022/08/04 02:17:33;;;;;;;4.47;2.53;;;21.30;99.90;;;;;;4863290;29;48410;-81
2022/08/04 02:20:22;;;;;;;7.78;2.38;;;21.30;99.90;;;;;;4858441;29;38940;-81
2022/08/04 02:23:00;;;;;;;7.32;2.53;;;21.40;99.90;;;;;;4845823;29;47110;-81
2022/08/04 02:25:28;;;;;;;5.55;2.55;;;21.40;99.90;;;;;;4852975;29;36583;-80
2022/08/04 02:27:59;;;;;;;4.57;2.13;;;21.40;99.90;;;;;;4864039;29;38723;-80
2022/08/04 02:30:39;;;;;;;6.13;2.10;;;21.40;99.90;;;;;;4862767;29;38048;-81
2022/08/04 02:33:08;;;;;;;3.35;2.38;;;21.50;99.90;;;;;;4862481;29;38561;-80
2022/08/04 02:35:37;;;;;;;4.03;1.80;;;21.50;99.90;;;;;;4849437;29;36217;-82
2022/08/04 02:38:28;;;;;;;3.42;1.73;;;21.50;99.90;;;;;;4845641;29;37789;-80
2022/08/04 02:40:57;;;;;;;5.95;1.80;;;21.50;99.90;;;;;;4848464;29;37605;-81
2022/08/04 02:43:24;;;;;;;3.60;1.10;;;21.40;99.90;;;;;;4844695;29;38586;-81
2022/08/04 02:45:55;;;;;;;3.20;1.10;;;21.40;99.90;;;;;;4867344;29;37225;-81
2022/08/04 02:48:24;;;;;;;6.32;1.23;;;21.40;99.90;;;;;;4866875;29;38833;-81
2022/08/04 02:50:53;;;;;;;4.03;1.10;;;21.40;99.90;;;;;;4870918;29;38579;-81
2022/08/04 02:53:21;;;;;;;2.88;1.52;;;21.40;99.90;;;;;;4848577;29;37638;-81
2022/08/04 02:55:48;;;;;;;6.38;1.23;;;21.30;99.90;;;;;;4865285;29;37218;-80
2022/08/04 02:58:18;;;;;;;3.40;1.17;;;21.30;99.90;;;;;;4864291;29;39570;-80
2022/08/04 03:00:46;;;;;;;2.40;0.93;;;21.30;99.90;;;;;;4851304;29;37610;-81
2022/08/04 03:03:24;;;;;;;2.83;1.10;;;21.30;99.90;;;;;;4849831;29;37470;-81
2022/08/04 03:06:10;;;;;;;7.15;1.40;;;21.40;99.90;;;;;;4849100;29;36160;-81
2022/08/04 03:08:57;;;;;;;4.03;1.40;;;21.30;99.90;;;;;;4855426;29;47087;-81
2022/08/04 03:11:29;;;;;;;1.58;0.70;;;21.20;99.90;;;;;;4842632;29;38945;-81
2022/08/04 03:13:58;;;;;;;;;;;21.20;99.90;;;;;;4846533;29;37410;-81
2022/08/04 03:16:39;;;;;;;6.03;1.70;;;21.20;99.90;;;;;;4868316;29;36438;-81
2022/08/04 03:19:17;;;;;;;2.20;1.15;;;21.20;99.90;;;;;;4869850;29;38346;-80
2022/08/04 03:21:55;;;;;;;2.30;1.38;;;21.20;99.90;;;;;;4874426;29;38170;-82
2022/08/04 03:24:42;;;;;;;3.53;1.27;;;21.20;99.90;;;;;;4867665;29;38333;-81
2022/08/04 03:27:29;;;;;;;3.65;1.30;;;21.10;99.90;;;;;;4849565;29;36208;-81
2022/08/04 03:30:18;;;;;;;3.35;1.80;;;21.10;99.90;;;;;;4849802;29;37559;-81
2022/08/04 03:33:19;;;;;;;2.88;1.38;;;21.00;99.90;;;;;;4855746;29;49523;-81
2022/08/04 03:36:17;;;;;;;1.95;1.17;;;21.00;99.90;;;;;;4850521;29;47262;-81
2022/08/04 03:39:05;;;;;;;5.70;1.90;;;20.90;99.90;;;;;;4861549;29;47319;-81
2022/08/04 03:42:05;;;;;;;2.35;1.20;;;20.90;99.90;;;;;;4870786;29;46948;-81
2022/08/04 03:44:50;;;;;;;4.07;1.40;;;20.80;99.90;;;;;;4848399;29;47046;-80
2022/08/04 03:47:41;;;;;;;3.20;1.20;;;20.70;99.90;;;;;;4869107;29;38490;-80
2022/08/04 03:50:07;;;;;;;3.50;1.45;;;20.70;99.90;;;;;;4848917;29;35938;-79
2022/08/04 03:53:08;;;;;;;4.63;1.48;;;20.70;99.90;;;;;;4847081;29;37795;-80
2022/08/04 03:55:43;;;;;;;3.53;1.48;;;20.60;99.90;;;;;;4841659;29;47416;-79
2022/08/04 03:58:38;;;;;;;3.22;1.35;;;20.60;99.90;;;;;;4862231;29;38075;-79
2022/08/04 04:01:28;;;;;;;4.68;1.33;;;20.60;99.90;;;;;;4856420;29;37711;-81
2022/08/04 04:04:28;;;;;;;3.85;1.48;;;20.60;99.90;;;;;;4843933;29;37904;-81
2022/08/04 04:07:33;;;;;;;3.92;2.15;;;20.50;99.90;;;;;;4844364;29;47146;-81
2022/08/04 04:10:15;;;;;;;3.85;1.45;;;20.50;99.90;;;;;;4843160;29;48092;-80
2022/08/04 04:12:51;;;;;;;2.42;1.35;;;20.40;99.90;;;;;;4836447;29;47158;-81
2022/08/04 04:15:48;;;;;;;2.17;1.60;;;20.40;99.90;;;;;;4834097;29;37576;-80
2022/08/04 04:18:41;;;;;;;3.08;1.40;;;20.40;99.90;;;;;;4839798;29;39034;-80
2022/08/04 04:21:52;;;;;;;5.20;1.55;;;20.30;99.90;;;;;;4861287;29;37634;-80
2022/08/04 04:24:42;;;;;;;4.50;1.80;;;20.30;99.90;;;;;;4853371;29;37241;-79
2022/08/04 04:27:17;;;;;;;2.10;1.30;;;20.30;99.90;;;;;;4841694;29;38059;-80
2022/08/04 04:30:06;;;;;;;4.50;1.67;;;20.30;99.90;;;;;;4848345;29;38858;-81
2022/08/04 04:32:37;;;;;;;3.28;1.50;;;20.20;99.90;;;;;;4848240;29;47324;-82
2022/08/04 04:35:09;;;;;;;4.47;1.80;;;20.20;99.90;;;;;;4868386;29;38247;-80
2022/08/04 04:37:41;;;;;;;3.97;1.85;;;20.20;99.90;;;;;;4857739;29;38954;-80
2022/08/04 04:40:32;;;;;;;3.42;1.80;;;20.20;99.90;;;;;;4845430;29;37144;-79
2022/08/04 04:43:22;;;;;;;4.65;2.05;;;20.20;99.90;;;;;;4861203;29;39198;-79
2022/08/04 04:46:01;;;;;;;3.78;1.40;;;20.20;99.90;;;;;;4852233;29;47484;-80
2022/08/04 04:48:52;;;;;;;2.42;1.55;;;20.20;99.90;;;;;;4849069;29;47374;-79
2022/08/04 04:51:21;;;;;;;3.05;1.75;;;20.20;99.90;;;;;;4849336;29;38119;-80
2022/08/04 04:54:09;;;;;;;3.50;1.55;;;20.30;99.90;;;;;;4848518;29;41059;-79
2022/08/04 04:56:48;;;;;;;4.20;1.55;;;20.20;99.90;;;;;;4848638;29;47423;-81
2022/08/04 04:59:19;;;;;;;6.53;2.15;;;20.20;99.90;;;;;;4865290;29;38808;-81
2022/08/04 05:02:12;;;;;;;3.45;1.55;;;20.20;99.90;;;;;;4853974;29;37734;-83
2022/08/04 05:05:21;;;;;;;5.15;1.98;;;20.30;99.90;;;;;;4849905;29;47347;-81
2022/08/04 05:08:11;;;;;;;3.95;1.85;;;20.30;99.90;;;;;;4867011;29;48898;-80
2022/08/04 05:11:03;;;;;;;5.53;1.88;;;20.30;99.90;;;;;;4865768;29;47053;-77
2022/08/04 05:13:52;;;;;;;6.13;1.50;;;20.40;99.90;;;;;;4870948;29;47025;-80
2022/08/04 05:16:26;;;;;;;4.05;1.70;;;20.40;99.90;;;;;;4869067;29;37620;-77
2022/08/04 05:19:11;;;;;;;5.47;1.98;;;20.40;99.90;;;;;;4863663;29;36847;-80
2022/08/04 05:21:49;;;;;;;5.80;1.98;;;20.40;99.90;;;;;;4858635;29;48389;-77
2022/08/04 05:24:18;;;;;;;6.70;2.10;;;20.40;99.90;;;;;;4847569;29;37807;-77
2022/08/04 05:26:50;;;;;;;7.00;2.47;;;20.40;99.90;;;;;;4846501;29;37137;-79
2022/08/04 05:29:26;;;;;;;9.05;2.28;;;20.40;99.90;;;;;;4851048;29;36022;-78
2022/08/04 05:31:54;;;;;;;2.72;1.73;;;20.40;99.90;;;;;;4849965;29;40954;-78
2022/08/04 05:34:29;;;;;;;7.93;2.00;;;20.40;99.90;;;;;;4845393;29;37890;-78
2022/08/04 05:36:58;;;;;;;8.88;2.45;;;20.50;99.90;;;;;;4850296;29;37553;-77
2022/08/04 05:39:28;;;;;;;4.93;2.10;;;20.60;99.90;;;;;;4843809;29;37231;-78
2022/08/04 05:41:57;;;;;;;17.25;3.17;;;20.80;99.90;;;;;;4844893;29;37663;-78
2022/08/04 05:44:25;;;;;;;9.52;2.38;;;21.00;99.90;;;;;;4856618;29;37747;-78
2022/08/04 05:46:55;;;;;;;5.70;2.17;;;21.00;99.90;;;;;;4867458;29;38994;-78
2022/08/04 05:49:27;;;;;;;12.38;2.35;;;21.10;99.90;;;;;;4855619;29;36584;-78
2022/08/04 05:51:55;;;;;;;4.95;1.90;;;21.20;99.90;;;;;;4854336;29;40550;-77
2022/08/04 05:54:23;;;;;;;7.85;2.35;;;21.20;99.90;;;;;;4871344;29;40010;-77
2022/08/04 05:56:50;;;;;;;7.22;2.13;;;21.20;99.90;;;;;;4843433;29;37299;-78
2022/08/04 05:59:18;;;;;;;11.40;2.30;;;21.30;99.90;;;;;;4862454;29;35809;-78
2022/08/04 06:01:46;;;;;;;10.30;2.78;;;21.30;99.90;;;;;;4862270;29;38976;-78
2022/08/04 06:04:16;;;;;;;6.75;2.00;;;21.40;99.90;;;;;;4844972;29;39047;-78
2022/08/04 06:06:44;;;;;;;6.93;1.83;;;21.40;99.90;;;;;;4848909;29;38440;-78
2022/08/04 06:09:10;;;;;;;7.03;2.38;;;21.50;99.90;;;;;;4868658;29;37111;-78
2022/08/04 06:11:39;;;;;;;6.05;2.17;;;21.50;99.90;;;;;;4866174;29;39635;-78
2022/08/04 06:14:08;;;;;;;7.78;1.45;;;21.60;99.90;;;;;;4870021;29;39127;-78
2022/08/04 06:16:38;;;;;;;7.65;2.38;;;21.60;99.90;;;;;;4868815;29;38287;-78
2022/08/04 06:19:07;;;;;;;6.05;1.80;;;21.70;99.90;;;;;;4853026;29;37538;-78
2022/08/04 06:21:36;;;;;;;6.32;1.92;;;21.80;99.90;;;;;;4879933;29;38588;-77
2022/08/04 06:24:05;;;;;;;6.05;2.00;;;21.90;99.90;;;;;;4879934;29;39937;-78
2022/08/04 06:26:34;;;;;;;6.57;2.20;;;21.90;99.90;;;;;;4859570;29;37387;-78
2022/08/04 06:29:02;;;;;;;6.28;1.70;;;22.00;99.90;;;;;;4879550;29;36985;-77
2022/08/04 06:31:56;;;;;;;6.20;1.75;;;22.10;99.90;;;;;;4857261;29;38745;-78
2022/08/04 06:34:24;;;;;;;9.13;1.40;;;22.10;99.90;;;;;;4848688;29;37872;-78
2022/08/04 06:36:51;;;;;;;7.50;2.42;;;22.30;99.90;;;;;;4865484;29;38288;-78
2022/08/04 06:39:18;;;;;;;5.38;1.83;;;22.40;99.90;;;;;;4849397;29;36191;-79
2022/08/04 06:41:44;;;;;;;5.95;1.83;;;22.40;99.90;;;;;;4857111;29;37896;-78
2022/08/04 06:44:12;;;;;;;4.32;1.60;;;22.60;99.90;;;;;;4847909;29;37814;-79
2022/08/04 06:46:40;;;;;;;5.35;1.70;;;22.60;99.90;;;;;;4854092;29;37774;-78
2022/08/04 06:49:07;;;;;;;4.18;1.30;;;22.70;99.90;;;;;;4848979;29;36107;-79
2022/08/04 06:51:35;;;;;;;6.40;2.22;;;22.90;99.90;;;;;;4866084;29;38898;-78
2022/08/04 06:54:02;;;;;;;6.68;1.80;;;22.90;99.90;;;;;;4853748;29;39335;-79
2022/08/04 06:56:29;;;;;;;4.72;1.38;;;22.90;99.90;;;;;;4849996;29;47328;-77
2022/08/04 06:58:58;;;;;;;5.15;1.58;;;22.90;99.90;;;;;;4845405;29;35897;-78
2022/08/04 07:01:25;;;;;;;3.65;1.98;;;23.10;99.90;;;;;;4862217;29;40037;-79
2022/08/04 07:03:52;;;;;;;10.27;2.15;;;23.50;99.90;;;;;;4861375;29;38717;-79
2022/08/04 07:06:20;;;;;;;5.43;1.73;;;23.70;99.90;;;;;;4851850;29;37334;-78
2022/08/04 07:08:48;;;;;;;3.53;1.17;;;23.90;99.90;;;;;;4849940;29;37357;-77
2022/08/04 07:11:15;;;;;;;6.22;1.63;;;23.90;99.90;;;;;;4848510;29;37713;-78
2022/08/04 07:13:42;;;;;;;3.97;1.42;;;23.90;99.90;;;;;;4844984;29;39506;-79
2022/08/04 07:16:12;;;;;;;7.18;1.40;;;23.80;99.90;;;;;;4848969;29;38659;-79
2022/08/04 07:18:38;;;;;;;3.88;1.50;;;23.80;99.90;;;;;;4840578;29;37262;-79
2022/08/04 07:21:04;;;;;;;3.88;1.50;;;23.90;99.90;;;;;;4841421;29;39877;-79
2022/08/04 07:23:30;;;;;;;4.65;1.60;;;24.10;99.90;;;;;;4863559;29;38611;-78
2022/08/04 07:25:57;;;;;;;2.38;1.58;;;24.40;99.90;;;;;;4843706;29;38534;-79
2022/08/04 07:28:26;;;;;;;5.13;1.63;;;24.60;99.90;;;;;;4842119;29;37351;-80
2022/08/04 07:30:54;;;;;;;5.22;1.80;;;24.70;99.90;;;;;;4861371;29;38356;-78
2022/08/04 07:33:21;;;;;;;3.25;1.67;;;24.50;99.90;;;;;;4862436;29;38060;-79
2022/08/04 07:35:51;;;;;;;6.13;1.70;;;24.30;99.90;;;;;;4865769;29;38349;-80
2022/08/04 07:38:17;;;;;;;9.73;1.70;;;24.20;99.90;;;;;;4844817;29;36462;-79
2022/08/04 07:40:44;;;;;;;6.55;1.58;;;24.20;99.90;;;;;;4851642;29;38281;-79
2022/08/04 07:43:10;;;;;;;4.00;1.67;;;24.50;99.90;;;;;;4871613;29;38308;-79
2022/08/04 07:45:37;;;;;;;4.47;1.23;;;24.70;99.90;;;;;;4868338;29;37401;-79
2022/08/04 07:48:05;;;;;;;4.10;1.83;;;24.70;99.90;;;;;;4837617;29;39135;-79
2022/08/04 07:50:33;;;;;;;7.50;1.50;;;24.70;99.90;;;;;;4858191;29;37611;-79
2022/08/04 07:53:00;;;;;;;4.50;1.63;;;24.50;99.90;;;;;;4847106;29;39046;-79
2022/08/04 07:55:27;;;;;;;4.93;1.30;;;24.30;99.90;;;;;;4861515;29;38826;-78
2022/08/04 07:57:54;;;;;;;6.57;1.70;;;24.30;99.90;;;;;;4846556;29;36423;-79
2022/08/04 08:00:20;;;;;;;6.10;1.50;;;24.40;99.90;;;;;;4842885;29;39041;-79
2022/08/04 08:02:49;;;;;;;5.63;1.58;;;24.60;99.90;;;;;;4841653;29;38317;-77
2022/08/04 08:05:18;;;;;;;2.72;1.30;;;24.80;99.90;;;;;;4860742;29;39773;-77
2022/08/04 08:07:48;;;;;;;6.20;1.75;;;24.90;99.90;;;;;;4875773;29;36124;-77
2022/08/04 08:10:15;;;;;;;5.15;1.52;;;25.20;99.90;;;;;;4841996;29;36906;-77
2022/08/04 08:12:42;;;;;;;5.47;1.50;;;25.30;99.90;;;;;;4841274;29;39164;-77
2022/08/04 08:15:11;;;;;;;8.60;2.00;;;25.30;99.90;;;;;;4840550;29;38692;-78
2022/08/04 08:17:38;;;;;;;5.53;2.45;;;25.50;99.90;;;;;;4852984;29;36187;-76
2022/08/04 08:20:06;;;;;;;4.57;1.30;;;25.30;99.90;;;;;;4844742;29;37892;-78
2022/08/04 08:22:32;;;;;;;2.70;1.40;;;25.20;99.90;;;;;;4850030;29;37874;-77
2022/08/04 08:25:00;;;;;;;5.80;1.40;;;25.20;99.90;;;;;;4850448;29;38132;-77
2022/08/04 08:27:26;;;;;;;4.25;1.67;;;25.40;99.90;;;;;;4863402;29;37901;-78
2022/08/04 08:29:53;;;;;;;5.05;1.77;;;25.60;99.90;;;;;;4863244;29;39368;-79
2022/08/04 08:32:19;;;;;;;3.55;1.52;;;25.70;99.90;;;;;;4866785;29;38840;-79
2022/08/04 08:34:46;;;;;;;4.18;1.55;;;25.50;99.90;;;;;;4846675;29;37275;-78
2022/08/04 08:37:24;;;;;;;5.15;1.40;;;25.30;99.90;;;;;;4862545;29;36999;-78
2022/08/04 08:39:58;;;;;;;5.07;1.40;;;25.20;99.90;;;;;;4848949;29;38398;-77
2022/08/04 08:42:47;;;;;;;2.58;1.33;;;25.10;99.90;;;;;;4866975;29;37319;-78
2022/08/04 08:45:36;;;;;;;3.83;1.95;;;25.10;99.90;;;;;;4865142;29;39245;-77
2022/08/04 08:48:43;;;;;;;7.03;1.55;;;25.20;99.90;;;;;;4846668;29;36317;-78
2022/08/04 08:51:38;;;;;;;3.88;1.40;;;25.70;99.90;;;;;;4845966;29;37567;-78
2022/08/04 08:54:22;;;;;;;6.13;1.45;;;26.20;99.90;;;;;;4862825;29;39811;-79
2022/08/04 08:57:06;;;;;;;3.10;1.27;;;26.30;99.90;;;;;;4864803;29;38596;-81
2022/08/04 09:00:09;;;;;;;4.43;1.17;;;26.10;99.90;;;;;;4864379;29;48454;-79
2022/08/04 09:02:49;;;;;;;3.33;1.17;;;26.20;99.90;;;;;;4845891;29;47189;-79
2022/08/04 09:05:58;;;;;;;2.45;1.25;;;26.30;99.90;;;;;;4862369;29;38862;-78
2022/08/04 09:09:01;;;;;;;5.13;1.20;;;26.20;99.90;;;;;;4867901;29;38133;-78
2022/08/04 09:11:36;;;;;;;6.20;1.08;;;25.80;99.90;;;;;;4859226;29;48376;-77
2022/08/04 09:14:24;;;;;;;2.90;1.10;;;25.70;99.90;;;;;;4859064;29;38480;-78
2022/08/04 09:17:01;;;;;;;5.43;1.10;;;25.60;99.90;;;;;;4847607;29;37565;-77
2022/08/04 09:19:41;;;;;;;1.88;0.90;;;25.50;99.90;;;;;;4854274;29;47381;-77
2022/08/04 09:22:23;;;;;;;2.15;1.02;;;25.50;99.90;;;;;;4877604;29;36842;-78
2022/08/04 09:25:09;;;;;;;2.13;0.90;;;25.40;99.90;;;;;;4861956;29;39402;-78
2022/08/04 09:27:43;;;;;;;2.30;1.17;;;25.40;99.90;;;;;;4850892;29;47018;-79
2022/08/04 09:30:11;;;;;;;3.05;1.00;;;25.40;99.90;;;;;;4844727;29;37792;-78
2022/08/04 09:32:37;;;;;;;3.80;1.35;;;25.30;99.90;;;;;;4863541;29;36985;-78
2022/08/04 09:35:44;;;;;;;2.65;1.00;;;25.30;99.90;;;;;;4844816;29;37967;-78
2022/08/04 09:38:26;;;;;;;2.35;1.13;;;25.20;99.90;;;;;;4868295;29;40901;-78
2022/08/04 09:41:02;;;;;;;3.80;1.63;;;25.20;99.90;;;;;;4849268;29;37225;-78
2022/08/04 09:43:41;;;;;;;2.35;1.20;;;25.30;99.90;;;;;;4849013;29;48719;-77
2022/08/04 09:46:24;;;;;;;2.95;1.13;;;25.30;99.90;;;;;;4852186;29;38131;-77
2022/08/04 09:49:13;;;;;;;3.67;1.20;;;25.30;99.90;;;;;;4854897;29;37924;-77
2022/08/04 09:51:52;;;;;;;3.50;1.27;;;25.30;99.90;;;;;;4846058;29;47287;-77
2022/08/04 09:54:51;;;;;;;3.15;1.20;;;25.20;99.90;;;;;;4866333;29;37293;-77
2022/08/04 09:58:04;;;;;;;1.95;1.00;;;25.20;99.90;;;;;;4865310;29;38293;-77
2022/08/04 10:00:40;;;;;;;5.22;1.55;;;25.30;99.90;;;;;;4829758;29;48256;-78
2022/08/04 10:03:09;;;;;;;2.83;1.15;;;25.50;99.90;;;;;;4869633;29;39041;-78
2022/08/04 10:05:55;;;;;;;4.57;1.40;;;25.60;99.90;;;;;;4849897;29;37481;-77
2022/08/04 10:08:29;;;;;;;2.05;1.23;;;25.70;99.90;;;;;;4843817;29;37717;-77
2022/08/04 10:11:20;;;;;;;2.55;1.48;;;25.80;99.90;;;;;;4852542;29;38035;-77
2022/08/04 10:13:56;;;;;;;3.43;1.20;;;25.70;99.90;;;;;;4869166;29;46979;-76
2022/08/04 10:17:04;;;;;;;8.73;1.70;;;25.80;99.90;;;;;;4867135;29;37679;-77
2022/08/04 10:19:39;;;;;;;3.90;1.50;;;25.80;99.90;;;;;;4832543;29;47115;-76
2022/08/04 10:22:08;;;;;;;5.53;1.30;;;25.70;99.90;;;;;;4863540;29;38566;-77
2022/08/04 10:25:07;;;;;;;4.38;1.20;;;25.80;99.90;;;;;;4865526;29;39597;-76
2022/08/04 10:27:45;;;;;;;3.70;1.45;;;25.80;99.90;;;;;;4864575;29;49081;-77
2022/08/04 10:30:15;;;;;;;3.58;1.20;;;26.00;99.90;;;;;;4847966;29;38743;-76
2022/08/04 10:32:44;;;;;;;2.70;1.30;;;26.20;99.90;;;;;;4852632;29;37631;-77
2022/08/04 10:35:13;;;;;;;5.30;1.38;;;26.50;99.90;;;;;;4854332;29;37890;-77
2022/08/04 10:37:54;;;;;;;3.70;1.30;;;26.60;99.90;;;;;;4849065;29;36090;-77
2022/08/04 10:40:45;;;;;;;1.98;1.20;;;26.60;99.90;;;;;;4857861;29;38044;-76
2022/08/04 10:43:20;;;;;;;1.80;1.30;;;26.50;99.90;;;;;;4843794;29;39917;-76
2022/08/04 10:45:57;;;;;;;2.88;1.00;;;26.50;99.90;;;;;;4851094;29;37865;-77
2022/08/04 10:48:49;;;;;;;5.25;1.38;;;26.50;99.90;;;;;;4855543;29;37220;-76
2022/08/04 10:51:45;;;;;;;5.32;1.60;;;26.50;99.90;;;;;;4849518;29;37782;-78
2022/08/04 10:54:20;;;;;;;2.95;1.20;;;26.60;99.90;;;;;;4867619;29;39928;-78
2022/08/04 10:56:55;;;;;;;4.93;1.27;;;26.60;99.90;;;;;;4855042;29;38370;-76
2022/08/04 10:59:32;;;;;;;1.90;1.17;;;26.80;99.90;;;;;;4851240;29;36473;-77
2022/08/04 11:02:08;;;;;;;3.25;1.30;;;27.20;99.90;;;;;;4869377;29;40198;-77
2022/08/04 11:04:45;;;;;;;5.72;1.45;;;27.70;99.90;;;;;;4862027;29;47343;-78
2022/08/04 11:07:12;;;;;;;2.42;1.42;;;27.60;99.90;;;;;;4847873;29;38237;-77
2022/08/04 11:09:39;;;;;;;2.45;1.13;;;27.50;99.90;;;;;;4865845;29;37982;-77
2022/08/04 11:12:14;;;;;;;1.95;1.13;;;27.70;99.90;;;;;;4865959;29;39880;-79
2022/08/04 11:14:49;;;;;;;2.70;1.40;;;28.00;99.90;;;;;;4852696;29;37800;-79
2022/08/04 11:17:28;;;;;;;2.42;1.10;;;28.20;99.90;;;;;;4859920;29;37576;-80
2022/08/04 11:20:13;;;;;;;3.90;1.95;;;28.50;99.90;;;;;;4866265;29;37753;-80
2022/08/04 11:22:48;;;;;;;2.03;1.30;;;28.70;99.90;;;;;;4865672;29;49149;-79
2022/08/04 11:25:23;;;;;;;2.60;1.30;;;28.70;99.90;;;;;;4864756;29;38745;-79
2022/08/04 11:28:08;;;;;;;2.60;1.52;;;29.20;99.90;;;;;;4844661;29;37542;-81
2022/08/04 11:31:01;;;;;;;5.50;1.52;;;29.40;99.90;;;;;;4863651;29;49693;-80
2022/08/04 11:33:51;;;;;;;2.53;1.38;;;29.20;99.90;;;;;;4843989;29;47345;-80
2022/08/04 11:36:41;;;;;;;2.05;1.33;;;28.80;99.90;;;;;;4869972;29;38106;-80
2022/08/04 11:39:21;;;;;;;6.88;1.52;;;28.60;99.90;;;;;;4849171;29;37953;-78
2022/08/04 11:42:05;;;;;;;2.65;1.20;;;28.10;99.90;;;;;;4870011;29;37141;-79
2022/08/04 11:44:36;;;;;;;4.55;1.10;;;28.00;99.90;;;;;;4865742;29;49414;-79
2022/08/04 11:47:10;;;;;;;1.83;1.23;;;28.10;99.90;;;;;;4864760;29;39591;-79
2022/08/04 11:49:51;;;;;;;2.40;1.20;;;28.20;99.90;;;;;;4848829;29;40081;-79
2022/08/04 11:52:19;;;;;;;2.90;1.30;;;28.50;99.90;;;;;;4852564;29;37109;-79
2022/08/04 11:54:47;;;;;;;4.18;1.20;;;28.80;99.90;;;;;;4853146;29;39129;-79
2022/08/04 11:57:14;;;;;;;6.15;1.20;;;29.00;99.90;;;;;;4855162;29;37777;-79
2022/08/04 11:59:41;;;;;;;5.80;1.20;;;28.90;99.90;;;;;;4853838;29;38265;-80
2022/08/04 12:02:29;;;;;;;4.60;1.00;;;28.80;99.90;;;;;;4861772;29;36736;-79
2022/08/04 12:04:58;;;;;;;4.10;0.98;;;29.00;99.90;;;;;;4844770;29;39089;-78
2022/08/04 12:07:38;;;;;;;4.07;1.52;;;29.30;99.90;;;;;;4845982;29;37834;-79
2022/08/04 12:10:35;;;;;;;1.70;0.90;;;29.40;99.90;;;;;;4866165;29;38578;-79
2022/08/04 12:13:29;;;;;;;3.03;1.17;;;29.50;99.90;;;;;;4850381;29;38122;-79
2022/08/04 12:16:28;;;;;;;3.97;0.95;;;29.40;99.90;;;;;;4864308;29;39631;-80
2022/08/04 12:19:01;;;;;;;3.58;0.90;;;29.40;99.90;;;;;;4851693;29;48285;-79
2022/08/04 12:21:42;;;;;;;2.47;1.10;;;29.40;99.90;;;;;;4849373;29;47652;-78
2022/08/04 12:24:36;;;;;;;6.18;1.13;;;29.40;99.90;;;;;;4869769;29;37242;-78
2022/08/04 12:27:30;;;;;;;3.40;1.10;;;29.40;99.90;;;;;;4860139;29;38246;-79
2022/08/04 12:29:57;;;;;;;3.67;1.10;;;29.40;99.90;;;;;;4860929;29;39049;-79
2022/08/04 12:32:31;;;;;;;2.10;1.00;;;29.40;99.90;;;;;;4868526;29;38465;-79
2022/08/04 12:35:11;;;;;;;4.07;1.23;;;29.30;99.90;;;;;;4852626;29;35940;-81
2022/08/04 12:37:50;;;;;;;3.20;0.98;;;29.40;99.90;;;;;;4852112;29;47106;-78
2022/08/04 12:40:25;;;;;;;4.90;1.13;;;29.50;99.90;;;;;;4857159;29;39216;-79
2022/08/04 12:43:07;;;;;;;4.25;1.40;;;29.40;99.90;;;;;;4868436;29;38132;-79
2022/08/04 12:45:34;;;;;;;9.95;1.30;;;29.10;99.90;;;;;;4846079;29;46880;-79
2022/08/04 12:48:05;;;;;;;8.77;1.60;;;29.20;99.90;;;;;;4849029;29;39334;-78
2022/08/04 12:50:32;;;;;;;4.60;1.55;;;29.10;99.90;;;;;;4868647;29;48639;-78
2022/08/04 12:52:58;;;;;;;4.22;1.25;;;29.30;99.90;;;;;;4849710;29;37368;-78
2022/08/04 12:55:30;;;;;;;4.32;0.90;;;29.30;99.90;;;;;;4844771;29;37366;-78
2022/08/04 12:57:57;;;;;;;5.13;1.35;;;29.10;99.90;;;;;;4845864;29;37875;-77
2022/08/04 13:00:34;;;;;;;3.97;1.00;;;29.20;99.90;;;;;;4844100;29;39021;-78
2022/08/04 13:03:08;;;;;;;3.70;1.10;;;29.30;99.90;;;;;;4865034;29;38255;-78
2022/08/04 13:05:35;;;;;;;4.80;1.20;;;29.20;99.90;;;;;;4863902;29;48003;-78
2022/08/04 13:08:03;;;;;;;2.20;1.23;;;29.20;99.90;;;;;;4849535;29;38695;-79
2022/08/04 13:10:35;;;;;;;5.32;1.40;;;29.00;99.90;;;;;;4861539;29;39578;-79
2022/08/04 13:13:02;;;;;;;4.95;1.20;;;29.10;99.90;;;;;;4847877;29;37121;-80
2022/08/04 13:15:29;;;;;;;3.42;1.15;;;29.20;99.90;;;;;;4863032;29;37098;-78
2022/08/04 13:18:00;;;;;;;4.13;1.30;;;29.20;99.90;;;;;;4863931;29;38730;-79
2022/08/04 13:20:32;;;;;;;7.53;1.53;;;29.10;99.90;;;;;;4868015;29;38405;-81
2022/08/04 13:23:04;;;;;;;4.75;1.35;;;29.10;99.90;;;;;;4847144;29;38057;-80
2022/08/04 13:25:32;;;;;;;6.20;1.52;;;29.00;99.90;;;;;;4851899;29;47149;-79
2022/08/04 13:27:59;;;;;;;8.55;1.63;;;29.00;99.90;;;;;;4871547;29;37965;-79
2022/08/04 13:30:29;;;;;;;4.72;1.83;;;29.30;99.90;;;;;;4847369;29;38175;-78
2022/08/04 13:32:59;;;;;;;4.05;1.60;;;29.50;99.90;;;;;;4852178;29;39628;-79
2022/08/04 13:35:27;;;;;;;7.88;2.40;;;29.50;99.90;;;;;;4841217;29;35970;-78
2022/08/04 13:37:55;;;;;;;7.15;2.00;;;29.50;99.90;;;;;;4866617;29;39457;-79